sensor_id;sensor_type;location;lat;lon;timestamp;P1;durP1;ratioP1;P2;durP2;ratioP2
26181;SDS011;13927;51.534;11.866;2022-07-29T00:00:42;6.68;;;1.95;;
26181;SDS011;13927;51.534;11.866;2022-07-29T00:03:11;4.95;;;1.35;;
26181;SDS011;13927;51.534;11.866;2022-07-29T00:05:38;3.88;;;1.40;;
26181;SDS011;13927;51.534;11.866;2022-07-29T00:08:05;4.35;;;2.05;;
26181;SDS011;13927;51.534;11.866;2022-07-29T00:10:31;3.67;;;1.30;;
26181;SDS011;13927;51.534;11.866;2022-07-29T00:12:57;2.70;;;1.15;;
26181;SDS011;13927;51.534;11.866;2022-07-29T00:15:23;6.85;;;1.48;;
26181;SDS011;13927;51.534;11.866;2022-07-29T00:17:49;4.05;;;1.30;;
26181;SDS011;13927;51.534;11.866;2022-07-29T00:20:15;4.97;;;1.77;;
26181;SDS011;13927;51.534;11.866;2022-07-29T00:22:41;5.55;;;1.58;;
26181;SDS011;13927;51.534;11.866;2022-07-29T00:25:07;5.47;;;1.50;;
26181;SDS011;13927;51.534;11.866;2022-07-29T00:27:34;7.90;;;1.83;;
26181;SDS011;13927;51.534;11.866;2022-07-29T00:30:00;2.60;;;1.40;;
26181;SDS011;13927;51.534;11.866;2022-07-29T00:32:28;3.83;;;1.52;;
26181;SDS011;13927;51.534;11.866;2022-07-29T00:34:54;5.88;;;1.70;;
26181;SDS011;13927;51.534;11.866;2022-07-29T00:37:38;5.00;;;1.98;;
26181;SDS011;13927;51.534;11.866;2022-07-29T00:40:04;3.53;;;1.40;;
26181;SDS011;13927;51.534;11.866;2022-07-29T00:42:30;4.88;;;1.75;;
26181;SDS011;13927;51.534;11.866;2022-07-29T00:45:06;3.50;;;1.65;;
26181;SDS011;13927;51.534;11.866;2022-07-29T00:47:32;4.20;;;1.63;;
26181;SDS011;13927;51.534;11.866;2022-07-29T00:49:58;4.13;;;1.50;;
26181;SDS011;13927;51.534;11.866;2022-07-29T00:52:24;4.65;;;1.50;;
26181;SDS011;13927;51.534;11.866;2022-07-29T00:54:50;5.75;;;1.38;;
26181;SDS011;13927;51.534;11.866;2022-07-29T00:57:15;3.85;;;1.60;;
26181;SDS011;13927;51.534;11.866;2022-07-29T00:59:41;5.22;;;1.75;;
26181;SDS011;13927;51.534;11.866;2022-07-29T01:02:07;5.35;;;1.70;;
26181;SDS011;13927;51.534;11.866;2022-07-29T01:04:32;4.00;;;1.50;;
26181;SDS011;13927;51.534;11.866;2022-07-29T01:07:02;3.88;;;1.90;;
26181;SDS011;13927;51.534;11.866;2022-07-29T01:09:29;3.42;;;1.60;;
26181;SDS011;13927;51.534;11.866;2022-07-29T01:11:57;5.18;;;2.10;;
26181;SDS011;13927;51.534;11.866;2022-07-29T01:14:23;5.63;;;1.73;;
26181;SDS011;13927;51.534;11.866;2022-07-29T01:16:54;4.43;;;1.90;;
26181;SDS011;13927;51.534;11.866;2022-07-29T01:19:33;6.50;;;2.13;;
26181;SDS011;13927;51.534;11.866;2022-07-29T01:25:23;3.78;;;1.27;;
26181;SDS011;13927;51.534;11.866;2022-07-29T01:28:17;5.43;;;1.75;;
26181;SDS011;13927;51.534;11.866;2022-07-29T01:31:16;3.45;;;1.88;;
26181;SDS011;13927;51.534;11.866;2022-07-29T01:33:57;4.90;;;1.80;;
26181;SDS011;13927;51.534;11.866;2022-07-29T01:36:40;6.60;;;2.03;;
26181;SDS011;13927;51.534;11.866;2022-07-29T01:39:14;5.20;;;2.67;;
26181;SDS011;13927;51.534;11.866;2022-07-29T01:41:57;6.82;;;2.53;;
26181;SDS011;13927;51.534;11.866;2022-07-29T01:44:41;4.70;;;1.95;;
26181;SDS011;13927;51.534;11.866;2022-07-29T01:47:22;2.92;;;1.75;;
26181;SDS011;13927;51.534;11.866;2022-07-29T01:49:52;3.45;;;1.60;;
26181;SDS011;13927;51.534;11.866;2022-07-29T01:52:23;3.53;;;1.85;;
26181;SDS011;13927;51.534;11.866;2022-07-29T01:55:17;5.35;;;1.70;;
26181;SDS011;13927;51.534;11.866;2022-07-29T01:57:49;3.90;;;1.75;;
26181;SDS011;13927;51.534;11.866;2022-07-29T02:00:15;3.53;;;1.63;;
26181;SDS011;13927;51.534;11.866;2022-07-29T02:02:42;3.55;;;1.90;;
26181;SDS011;13927;51.534;11.866;2022-07-29T02:05:10;3.20;;;1.63;;
26181;SDS011;13927;51.534;11.866;2022-07-29T02:07:42;5.63;;;1.92;;
26181;SDS011;13927;51.534;11.866;2022-07-29T02:10:10;5.50;;;1.80;;
26181;SDS011;13927;51.534;11.866;2022-07-29T02:12:38;3.55;;;2.20;;
26181;SDS011;13927;51.534;11.866;2022-07-29T02:15:07;3.75;;;2.05;;
26181;SDS011;13927;51.534;11.866;2022-07-29T02:17:42;4.05;;;1.95;;
26181;SDS011;13927;51.534;11.866;2022-07-29T02:20:14;4.32;;;1.70;;
26181;SDS011;13927;51.534;11.866;2022-07-29T02:22:41;4.45;;;1.70;;
26181;SDS011;13927;51.534;11.866;2022-07-29T02:25:10;3.50;;;1.73;;
26181;SDS011;13927;51.534;11.866;2022-07-29T02:27:37;5.22;;;2.00;;
26181;SDS011;13927;51.534;11.866;2022-07-29T02:30:04;3.50;;;1.55;;
26181;SDS011;13927;51.534;11.866;2022-07-29T02:32:34;2.53;;;1.55;;
26181;SDS011;13927;51.534;11.866;2022-07-29T02:35:03;8.40;;;1.90;;
26181;SDS011;13927;51.534;11.866;2022-07-29T02:37:30;6.13;;;1.70;;
26181;SDS011;13927;51.534;11.866;2022-07-29T02:39:56;6.20;;;2.05;;
26181;SDS011;13927;51.534;11.866;2022-07-29T02:42:23;6.78;;;1.63;;
26181;SDS011;13927;51.534;11.866;2022-07-29T02:44:51;5.85;;;2.15;;
26181;SDS011;13927;51.534;11.866;2022-07-29T02:50:15;8.73;;;2.72;;
26181;SDS011;13927;51.534;11.866;2022-07-29T02:58:09;4.07;;;1.60;;
26181;SDS011;13927;51.534;11.866;2022-07-29T03:00:47;3.38;;;1.85;;
26181;SDS011;13927;51.534;11.866;2022-07-29T03:03:16;5.25;;;1.58;;
26181;SDS011;13927;51.534;11.866;2022-07-29T03:05:44;7.05;;;1.63;;
26181;SDS011;13927;51.534;11.866;2022-07-29T03:08:10;3.97;;;1.65;;
26181;SDS011;13927;51.534;11.866;2022-07-29T03:10:39;7.10;;;2.00;;
26181;SDS011;13927;51.534;11.866;2022-07-29T03:13:09;3.15;;;1.67;;
26181;SDS011;13927;51.534;11.866;2022-07-29T03:15:35;5.82;;;2.40;;
26181;SDS011;13927;51.534;11.866;2022-07-29T03:18:02;5.95;;;2.63;;
26181;SDS011;13927;51.534;11.866;2022-07-29T03:20:28;5.75;;;2.47;;
26181;SDS011;13927;51.534;11.866;2022-07-29T03:22:54;3.53;;;1.58;;
26181;SDS011;13927;51.534;11.866;2022-07-29T03:25:20;4.20;;;1.75;;
26181;SDS011;13927;51.534;11.866;2022-07-29T03:27:46;4.50;;;2.25;;
26181;SDS011;13927;51.534;11.866;2022-07-29T03:30:13;3.90;;;1.80;;
26181;SDS011;13927;51.534;11.866;2022-07-29T03:32:40;3.85;;;1.63;;
26181;SDS011;13927;51.534;11.866;2022-07-29T03:35:06;4.43;;;1.95;;
26181;SDS011;13927;51.534;11.866;2022-07-29T03:37:33;5.80;;;2.00;;
26181;SDS011;13927;51.534;11.866;2022-07-29T03:40:02;4.03;;;1.70;;
26181;SDS011;13927;51.534;11.866;2022-07-29T03:42:31;6.55;;;2.30;;
26181;SDS011;13927;51.534;11.866;2022-07-29T03:44:59;7.03;;;2.25;;
26181;SDS011;13927;51.534;11.866;2022-07-29T03:47:31;3.63;;;2.17;;
26181;SDS011;13927;51.534;11.866;2022-07-29T03:50:00;3.97;;;1.80;;
26181;SDS011;13927;51.534;11.866;2022-07-29T03:52:31;6.95;;;2.08;;
26181;SDS011;13927;51.534;11.866;2022-07-29T03:54:57;4.75;;;2.60;;
26181;SDS011;13927;51.534;11.866;2022-07-29T03:57:24;4.47;;;2.45;;
26181;SDS011;13927;51.534;11.866;2022-07-29T03:59:52;4.80;;;1.70;;
26181;SDS011;13927;51.534;11.866;2022-07-29T04:02:19;3.85;;;1.90;;
26181;SDS011;13927;51.534;11.866;2022-07-29T04:04:46;5.32;;;2.17;;
26181;SDS011;13927;51.534;11.866;2022-07-29T04:07:12;6.60;;;1.90;;
26181;SDS011;13927;51.534;11.866;2022-07-29T04:09:40;4.07;;;2.00;;
26181;SDS011;13927;51.534;11.866;2022-07-29T04:12:06;4.75;;;1.75;;
26181;SDS011;13927;51.534;11.866;2022-07-29T04:14:32;5.20;;;1.90;;
26181;SDS011;13927;51.534;11.866;2022-07-29T04:17:02;7.32;;;2.33;;
26181;SDS011;13927;51.534;11.866;2022-07-29T04:19:29;6.45;;;2.45;;
26181;SDS011;13927;51.534;11.866;2022-07-29T04:21:56;5.97;;;2.47;;
26181;SDS011;13927;51.534;11.866;2022-07-29T04:24:22;7.28;;;2.05;;
26181;SDS011;13927;51.534;11.866;2022-07-29T04:26:48;5.03;;;2.15;;
26181;SDS011;13927;51.534;11.866;2022-07-29T04:29:14;4.82;;;1.90;;
26181;SDS011;13927;51.534;11.866;2022-07-29T04:31:40;7.97;;;2.83;;
26181;SDS011;13927;51.534;11.866;2022-07-29T04:34:07;7.07;;;2.08;;
26181;SDS011;13927;51.534;11.866;2022-07-29T04:36:33;3.20;;;1.75;;
26181;SDS011;13927;51.534;11.866;2022-07-29T04:38:59;4.78;;;2.35;;
26181;SDS011;13927;51.534;11.866;2022-07-29T04:41:26;3.65;;;2.08;;
26181;SDS011;13927;51.534;11.866;2022-07-29T04:43:52;4.78;;;1.90;;
26181;SDS011;13927;51.534;11.866;2022-07-29T04:46:19;7.72;;;1.83;;
26181;SDS011;13927;51.534;11.866;2022-07-29T04:48:45;5.70;;;2.63;;
26181;SDS011;13927;51.534;11.866;2022-07-29T04:51:12;6.03;;;2.03;;
26181;SDS011;13927;51.534;11.866;2022-07-29T04:53:39;4.07;;;2.00;;
26181;SDS011;13927;51.534;11.866;2022-07-29T04:56:04;6.30;;;2.50;;
26181;SDS011;13927;51.534;11.866;2022-07-29T04:58:30;6.60;;;2.05;;
26181;SDS011;13927;51.534;11.866;2022-07-29T05:00:56;4.53;;;1.80;;
26181;SDS011;13927;51.534;11.866;2022-07-29T05:03:22;4.32;;;2.17;;
26181;SDS011;13927;51.534;11.866;2022-07-29T05:05:47;3.35;;;1.83;;
26181;SDS011;13927;51.534;11.866;2022-07-29T05:08:13;4.20;;;2.08;;
26181;SDS011;13927;51.534;11.866;2022-07-29T05:10:39;2.88;;;1.48;;
26181;SDS011;13927;51.534;11.866;2022-07-29T05:13:05;3.60;;;2.00;;
26181;SDS011;13927;51.534;11.866;2022-07-29T05:15:32;6.03;;;1.67;;
26181;SDS011;13927;51.534;11.866;2022-07-29T05:17:59;7.45;;;2.00;;
26181;SDS011;13927;51.534;11.866;2022-07-29T05:20:25;8.55;;;2.30;;
26181;SDS011;13927;51.534;11.866;2022-07-29T05:22:57;8.77;;;2.83;;
26181;SDS011;13927;51.534;11.866;2022-07-29T05:25:24;6.82;;;2.65;;
26181;SDS011;13927;51.534;11.866;2022-07-29T05:27:52;6.65;;;2.58;;
26181;SDS011;13927;51.534;11.866;2022-07-29T05:30:18;8.20;;;2.40;;
26181;SDS011;13927;51.534;11.866;2022-07-29T05:32:44;10.25;;;1.85;;
26181;SDS011;13927;51.534;11.866;2022-07-29T05:35:10;5.80;;;2.00;;
26181;SDS011;13927;51.534;11.866;2022-07-29T05:37:37;5.45;;;1.50;;
26181;SDS011;13927;51.534;11.866;2022-07-29T05:40:03;6.13;;;1.90;;
26181;SDS011;13927;51.534;11.866;2022-07-29T05:42:30;7.50;;;2.10;;
26181;SDS011;13927;51.534;11.866;2022-07-29T05:44:55;3.78;;;1.90;;
26181;SDS011;13927;51.534;11.866;2022-07-29T05:47:22;5.05;;;1.60;;
26181;SDS011;13927;51.534;11.866;2022-07-29T05:49:48;5.43;;;2.20;;
26181;SDS011;13927;51.534;11.866;2022-07-29T05:52:15;5.85;;;2.00;;
26181;SDS011;13927;51.534;11.866;2022-07-29T05:54:41;5.53;;;2.03;;
26181;SDS011;13927;51.534;11.866;2022-07-29T05:57:07;5.38;;;2.20;;
26181;SDS011;13927;51.534;11.866;2022-07-29T05:59:36;5.15;;;1.88;;
26181;SDS011;13927;51.534;11.866;2022-07-29T06:02:03;4.50;;;1.73;;
26181;SDS011;13927;51.534;11.866;2022-07-29T06:04:30;5.50;;;1.85;;
26181;SDS011;13927;51.534;11.866;2022-07-29T06:06:57;4.88;;;2.08;;
26181;SDS011;13927;51.534;11.866;2022-07-29T06:09:22;3.60;;;1.90;;
26181;SDS011;13927;51.534;11.866;2022-07-29T06:11:48;8.00;;;1.90;;
26181;SDS011;13927;51.534;11.866;2022-07-29T06:14:14;5.55;;;2.03;;
26181;SDS011;13927;51.534;11.866;2022-07-29T06:16:40;4.88;;;1.98;;
26181;SDS011;13927;51.534;11.866;2022-07-29T06:19:06;5.95;;;2.40;;
26181;SDS011;13927;51.534;11.866;2022-07-29T06:21:31;7.18;;;2.85;;
26181;SDS011;13927;51.534;11.866;2022-07-29T06:23:58;7.43;;;2.00;;
26181;SDS011;13927;51.534;11.866;2022-07-29T06:26:24;5.22;;;1.90;;
26181;SDS011;13927;51.534;11.866;2022-07-29T06:28:50;4.78;;;2.55;;
26181;SDS011;13927;51.534;11.866;2022-07-29T06:31:15;4.57;;;1.83;;
26181;SDS011;13927;51.534;11.866;2022-07-29T06:33:41;7.35;;;2.65;;
26181;SDS011;13927;51.534;11.866;2022-07-29T06:36:07;5.80;;;1.90;;
26181;SDS011;13927;51.534;11.866;2022-07-29T06:38:33;4.97;;;2.33;;
26181;SDS011;13927;51.534;11.866;2022-07-29T06:40:59;4.32;;;1.80;;
26181;SDS011;13927;51.534;11.866;2022-07-29T06:43:59;4.63;;;1.77;;
26181;SDS011;13927;51.534;11.866;2022-07-29T06:46:18;4.13;;;2.45;;
26181;SDS011;13927;51.534;11.866;2022-07-29T06:48:45;4.70;;;2.30;;
26181;SDS011;13927;51.534;11.866;2022-07-29T06:51:14;5.93;;;2.45;;
26181;SDS011;13927;51.534;11.866;2022-07-29T06:53:41;3.50;;;2.00;;
26181;SDS011;13927;51.534;11.866;2022-07-29T06:56:07;3.95;;;1.92;;
26181;SDS011;13927;51.534;11.866;2022-07-29T06:58:38;5.10;;;2.50;;
26181;SDS011;13927;51.534;11.866;2022-07-29T07:01:04;4.82;;;1.80;;
26181;SDS011;13927;51.534;11.866;2022-07-29T07:03:31;6.45;;;1.90;;
26181;SDS011;13927;51.534;11.866;2022-07-29T07:05:57;6.32;;;2.38;;
26181;SDS011;13927;51.534;11.866;2022-07-29T07:08:23;6.18;;;2.53;;
26181;SDS011;13927;51.534;11.866;2022-07-29T07:10:52;5.57;;;2.47;;
26181;SDS011;13927;51.534;11.866;2022-07-29T07:13:18;5.53;;;2.65;;
26181;SDS011;13927;51.534;11.866;2022-07-29T07:15:44;7.25;;;2.40;;
26181;SDS011;13927;51.534;11.866;2022-07-29T07:18:12;5.28;;;2.10;;
26181;SDS011;13927;51.534;11.866;2022-07-29T07:20:40;5.47;;;2.55;;
26181;SDS011;13927;51.534;11.866;2022-07-29T07:23:06;6.00;;;3.10;;
26181;SDS011;13927;51.534;11.866;2022-07-29T07:25:31;7.00;;;2.65;;
26181;SDS011;13927;51.534;11.866;2022-07-29T07:27:57;4.43;;;1.98;;
26181;SDS011;13927;51.534;11.866;2022-07-29T07:30:23;5.35;;;2.60;;
26181;SDS011;13927;51.534;11.866;2022-07-29T07:32:49;8.10;;;2.22;;
26181;SDS011;13927;51.534;11.866;2022-07-29T07:35:15;4.30;;;2.13;;
26181;SDS011;13927;51.534;11.866;2022-07-29T07:37:41;6.88;;;2.47;;
26181;SDS011;13927;51.534;11.866;2022-07-29T07:40:08;3.70;;;2.38;;
26181;SDS011;13927;51.534;11.866;2022-07-29T07:42:36;5.75;;;2.20;;
26181;SDS011;13927;51.534;11.866;2022-07-29T07:45:03;7.30;;;2.60;;
26181;SDS011;13927;51.534;11.866;2022-07-29T07:47:30;5.13;;;2.20;;
26181;SDS011;13927;51.534;11.866;2022-07-29T07:49:57;5.22;;;1.98;;
26181;SDS011;13927;51.534;11.866;2022-07-29T07:52:23;5.88;;;2.15;;
26181;SDS011;13927;51.534;11.866;2022-07-29T07:54:49;4.50;;;2.45;;
26181;SDS011;13927;51.534;11.866;2022-07-29T07:57:15;3.67;;;2.00;;
26181;SDS011;13927;51.534;11.866;2022-07-29T07:59:41;6.60;;;2.28;;
26181;SDS011;13927;51.534;11.866;2022-07-29T08:02:07;6.13;;;2.80;;
26181;SDS011;13927;51.534;11.866;2022-07-29T08:04:34;4.18;;;3.00;;
26181;SDS011;13927;51.534;11.866;2022-07-29T08:07:00;5.50;;;2.50;;
26181;SDS011;13927;51.534;11.866;2022-07-29T08:09:27;8.18;;;3.75;;
26181;SDS011;13927;51.534;11.866;2022-07-29T08:11:54;14.40;;;4.47;;
26181;SDS011;13927;51.534;11.866;2022-07-29T08:14:20;5.88;;;3.03;;
26181;SDS011;13927;51.534;11.866;2022-07-29T08:16:46;6.18;;;2.90;;
26181;SDS011;13927;51.534;11.866;2022-07-29T08:19:13;10.27;;;4.70;;
26181;SDS011;13927;51.534;11.866;2022-07-29T08:21:38;8.57;;;4.82;;
26181;SDS011;13927;51.534;11.866;2022-07-29T08:24:05;6.63;;;4.82;;
26181;SDS011;13927;51.534;11.866;2022-07-29T08:26:49;10.68;;;6.28;;
26181;SDS011;13927;51.534;11.866;2022-07-29T08:29:15;9.70;;;5.65;;
26181;SDS011;13927;51.534;11.866;2022-07-29T08:31:41;14.15;;;6.75;;
26181;SDS011;13927;51.534;11.866;2022-07-29T08:34:08;11.05;;;5.13;;
26181;SDS011;13927;51.534;11.866;2022-07-29T08:36:34;10.52;;;5.65;;
26181;SDS011;13927;51.534;11.866;2022-07-29T08:39:00;9.80;;;5.82;;
26181;SDS011;13927;51.534;11.866;2022-07-29T08:41:26;10.43;;;5.75;;
26181;SDS011;13927;51.534;11.866;2022-07-29T08:43:52;12.52;;;6.07;;
26181;SDS011;13927;51.534;11.866;2022-07-29T08:46:19;9.95;;;4.55;;
26181;SDS011;13927;51.534;11.866;2022-07-29T08:48:45;7.25;;;4.82;;
26181;SDS011;13927;51.534;11.866;2022-07-29T08:51:15;6.75;;;4.95;;
26181;SDS011;13927;51.534;11.866;2022-07-29T08:53:46;9.27;;;5.15;;
26181;SDS011;13927;51.534;11.866;2022-07-29T08:56:14;7.68;;;4.80;;
26181;SDS011;13927;51.534;11.866;2022-07-29T08:58:44;6.85;;;4.80;;
26181;SDS011;13927;51.534;11.866;2022-07-29T09:01:12;8.85;;;4.60;;
26181;SDS011;13927;51.534;11.866;2022-07-29T09:03:43;8.52;;;4.70;;
26181;SDS011;13927;51.534;11.866;2022-07-29T09:06:12;7.93;;;4.78;;
26181;SDS011;13927;51.534;11.866;2022-07-29T09:08:40;7.10;;;4.57;;
26181;SDS011;13927;51.534;11.866;2022-07-29T09:11:06;8.60;;;5.10;;
26181;SDS011;13927;51.534;11.866;2022-07-29T09:13:32;8.05;;;3.90;;
26181;SDS011;13927;51.534;11.866;2022-07-29T09:15:59;8.70;;;3.85;;
26181;SDS011;13927;51.534;11.866;2022-07-29T09:18:35;9.65;;;3.70;;
26181;SDS011;13927;51.534;11.866;2022-07-29T09:21:09;7.15;;;3.65;;
26181;SDS011;13927;51.534;11.866;2022-07-29T09:26:37;6.43;;;3.08;;
26181;SDS011;13927;51.534;11.866;2022-07-29T09:29:12;5.80;;;3.15;;
26181;SDS011;13927;51.534;11.866;2022-07-29T09:31:47;5.82;;;3.08;;
26181;SDS011;13927;51.534;11.866;2022-07-29T09:34:16;9.07;;;3.70;;
26181;SDS011;13927;51.534;11.866;2022-07-29T09:36:49;5.93;;;3.50;;
26181;SDS011;13927;51.534;11.866;2022-07-29T09:39:27;5.95;;;3.00;;
26181;SDS011;13927;51.534;11.866;2022-07-29T09:42:10;5.78;;;2.67;;
26181;SDS011;13927;51.534;11.866;2022-07-29T09:44:43;4.57;;;2.85;;
26181;SDS011;13927;51.534;11.866;2022-07-29T09:47:14;5.15;;;3.03;;
26181;SDS011;13927;51.534;11.866;2022-07-29T09:52:24;5.13;;;2.47;;
26181;SDS011;13927;51.534;11.866;2022-07-29T09:54:51;8.00;;;2.80;;
26181;SDS011;13927;51.534;11.866;2022-07-29T09:57:23;5.40;;;2.90;;
26181;SDS011;13927;51.534;11.866;2022-07-29T10:00:09;3.90;;;2.47;;
26181;SDS011;13927;51.534;11.866;2022-07-29T10:02:44;6.05;;;2.55;;
26181;SDS011;13927;51.534;11.866;2022-07-29T10:05:24;5.53;;;2.50;;
26181;SDS011;13927;51.534;11.866;2022-07-29T10:07:56;7.32;;;3.10;;
26181;SDS011;13927;51.534;11.866;2022-07-29T10:10:24;7.35;;;2.40;;
26181;SDS011;13927;51.534;11.866;2022-07-29T10:12:55;5.07;;;2.42;;
26181;SDS011;13927;51.534;11.866;2022-07-29T10:15:25;7.72;;;2.83;;
26181;SDS011;13927;51.534;11.866;2022-07-29T10:17:55;10.45;;;3.00;;
26181;SDS011;13927;51.534;11.866;2022-07-29T10:20:22;7.50;;;2.90;;
26181;SDS011;13927;51.534;11.866;2022-07-29T10:22:49;4.15;;;2.63;;
26181;SDS011;13927;51.534;11.866;2022-07-29T10:25:16;6.30;;;2.50;;
26181;SDS011;13927;51.534;11.866;2022-07-29T10:27:43;9.00;;;3.10;;
26181;SDS011;13927;51.534;11.866;2022-07-29T10:30:11;6.68;;;3.15;;
26181;SDS011;13927;51.534;11.866;2022-07-29T10:35:57;7.10;;;3.53;;
26181;SDS011;13927;51.534;11.866;2022-07-29T10:42:31;5.53;;;3.15;;
26181;SDS011;13927;51.534;11.866;2022-07-29T10:44:53;9.20;;;3.35;;
26181;SDS011;13927;51.534;11.866;2022-07-29T10:47:22;7.43;;;2.60;;
26181;SDS011;13927;51.534;11.866;2022-07-29T10:49:56;6.15;;;3.17;;
26181;SDS011;13927;51.534;11.866;2022-07-29T10:55:38;5.18;;;3.53;;
26181;SDS011;13927;51.534;11.866;2022-07-29T10:58:13;7.30;;;3.72;;
26181;SDS011;13927;51.534;11.866;2022-07-29T11:00:50;7.45;;;3.05;;
26181;SDS011;13927;51.534;11.866;2022-07-29T11:06:11;5.28;;;3.30;;
26181;SDS011;13927;51.534;11.866;2022-07-29T11:08:38;13.60;;;2.97;;
26181;SDS011;13927;51.534;11.866;2022-07-29T11:13:45;8.43;;;3.05;;
26181;SDS011;13927;51.534;11.866;2022-07-29T11:16:20;5.80;;;3.28;;
26181;SDS011;13927;51.534;11.866;2022-07-29T11:21:39;5.55;;;2.65;;
26181;SDS011;13927;51.534;11.866;2022-07-29T11:24:14;5.68;;;3.13;;
26181;SDS011;13927;51.534;11.866;2022-07-29T11:26:43;4.80;;;3.25;;
26181;SDS011;13927;51.534;11.866;2022-07-29T11:31:46;5.10;;;3.25;;
26181;SDS011;13927;51.534;11.866;2022-07-29T11:47:40;7.18;;;2.75;;
26181;SDS011;13927;51.534;11.866;2022-07-29T11:50:28;4.75;;;3.08;;
26181;SDS011;13927;51.534;11.866;2022-07-29T11:52:59;4.30;;;2.78;;
26181;SDS011;13927;51.534;11.866;2022-07-29T11:55:26;5.05;;;2.75;;
26181;SDS011;13927;51.534;11.866;2022-07-29T12:00:25;6.22;;;2.88;;
26181;SDS011;13927;51.534;11.866;2022-07-29T12:02:58;5.97;;;2.80;;
26181;SDS011;13927;51.534;11.866;2022-07-29T12:05:33;6.35;;;2.90;;
26181;SDS011;13927;51.534;11.866;2022-07-29T12:08:09;4.82;;;2.70;;
26181;SDS011;13927;51.534;11.866;2022-07-29T12:10:46;3.80;;;2.53;;
26181;SDS011;13927;51.534;11.866;2022-07-29T12:13:14;9.15;;;2.78;;
26181;SDS011;13927;51.534;11.866;2022-07-29T12:15:42;5.50;;;2.78;;
26181;SDS011;13927;51.534;11.866;2022-07-29T12:18:22;3.08;;;2.20;;
26181;SDS011;13927;51.534;11.866;2022-07-29T12:20:48;5.15;;;2.38;;
26181;SDS011;13927;51.534;11.866;2022-07-29T12:23:22;5.00;;;2.80;;
26181;SDS011;13927;51.534;11.866;2022-07-29T12:25:48;3.72;;;2.45;;
26181;SDS011;13927;51.534;11.866;2022-07-29T12:28:14;4.22;;;2.50;;
26181;SDS011;13927;51.534;11.866;2022-07-29T12:30:46;6.90;;;2.60;;
26181;SDS011;13927;51.534;11.866;2022-07-29T12:33:28;3.60;;;2.28;;
26181;SDS011;13927;51.534;11.866;2022-07-29T12:35:56;4.82;;;2.47;;
26181;SDS011;13927;51.534;11.866;2022-07-29T12:38:24;3.33;;;2.30;;
26181;SDS011;13927;51.534;11.866;2022-07-29T12:40:51;3.53;;;2.25;;
26181;SDS011;13927;51.534;11.866;2022-07-29T12:43:19;4.63;;;2.50;;
26181;SDS011;13927;51.534;11.866;2022-07-29T12:45:50;3.72;;;2.63;;
26181;SDS011;13927;51.534;11.866;2022-07-29T12:51:02;4.55;;;2.58;;
26181;SDS011;13927;51.534;11.866;2022-07-29T12:53:29;5.50;;;2.47;;
26181;SDS011;13927;51.534;11.866;2022-07-29T12:55:55;5.68;;;2.58;;
26181;SDS011;13927;51.534;11.866;2022-07-29T12:58:39;6.43;;;2.28;;
26181;SDS011;13927;51.534;11.866;2022-07-29T13:01:10;9.30;;;2.65;;
26181;SDS011;13927;51.534;11.866;2022-07-29T13:03:46;11.18;;;2.83;;
26181;SDS011;13927;51.534;11.866;2022-07-29T13:06:27;6.95;;;2.03;;
26181;SDS011;13927;51.534;11.866;2022-07-29T13:11:49;3.78;;;2.25;;
26181;SDS011;13927;51.534;11.866;2022-07-29T13:14:34;4.32;;;2.45;;
26181;SDS011;13927;51.534;11.866;2022-07-29T13:22:16;4.13;;;2.17;;
26181;SDS011;13927;51.534;11.866;2022-07-29T13:27:18;7.00;;;2.88;;
26181;SDS011;13927;51.534;11.866;2022-07-29T13:29:47;3.45;;;2.05;;
26181;SDS011;13927;51.534;11.866;2022-07-29T13:32:16;4.88;;;2.03;;
26181;SDS011;13927;51.534;11.866;2022-07-29T13:34:42;4.70;;;2.38;;
26181;SDS011;13927;51.534;11.866;2022-07-29T13:37:08;3.47;;;2.20;;
26181;SDS011;13927;51.534;11.866;2022-07-29T13:39:33;6.07;;;2.90;;
26181;SDS011;13927;51.534;11.866;2022-07-29T13:41:59;8.77;;;3.00;;
26181;SDS011;13927;51.534;11.866;2022-07-29T13:44:25;3.15;;;2.13;;
26181;SDS011;13927;51.534;11.866;2022-07-29T13:46:51;3.72;;;2.40;;
26181;SDS011;13927;51.534;11.866;2022-07-29T13:49:17;4.93;;;2.95;;
26181;SDS011;13927;51.534;11.866;2022-07-29T13:51:43;3.65;;;2.55;;
26181;SDS011;13927;51.534;11.866;2022-07-29T13:54:08;7.22;;;2.70;;
26181;SDS011;13927;51.534;11.866;2022-07-29T13:56:34;3.17;;;2.10;;
26181;SDS011;13927;51.534;11.866;2022-07-29T13:59:00;6.15;;;2.30;;
26181;SDS011;13927;51.534;11.866;2022-07-29T14:01:26;4.95;;;2.78;;
26181;SDS011;13927;51.534;11.866;2022-07-29T14:03:52;3.40;;;2.60;;
26181;SDS011;13927;51.534;11.866;2022-07-29T14:06:18;3.50;;;2.10;;
26181;SDS011;13927;51.534;11.866;2022-07-29T14:08:44;5.57;;;2.33;;
26181;SDS011;13927;51.534;11.866;2022-07-29T14:11:10;3.67;;;2.28;;
26181;SDS011;13927;51.534;11.866;2022-07-29T14:13:35;4.18;;;2.33;;
26181;SDS011;13927;51.534;11.866;2022-07-29T14:16:01;4.93;;;2.15;;
26181;SDS011;13927;51.534;11.866;2022-07-29T14:18:27;6.78;;;2.42;;
26181;SDS011;13927;51.534;11.866;2022-07-29T14:20:53;3.90;;;2.70;;
26181;SDS011;13927;51.534;11.866;2022-07-29T14:23:18;3.97;;;2.30;;
26181;SDS011;13927;51.534;11.866;2022-07-29T14:25:44;6.32;;;2.67;;
26181;SDS011;13927;51.534;11.866;2022-07-29T14:28:11;7.15;;;2.55;;
26181;SDS011;13927;51.534;11.866;2022-07-29T14:30:37;4.03;;;2.60;;
26181;SDS011;13927;51.534;11.866;2022-07-29T14:33:03;3.67;;;2.45;;
26181;SDS011;13927;51.534;11.866;2022-07-29T14:35:29;4.65;;;2.85;;
26181;SDS011;13927;51.534;11.866;2022-07-29T14:37:55;4.57;;;2.15;;
26181;SDS011;13927;51.534;11.866;2022-07-29T14:40:20;4.40;;;2.45;;
26181;SDS011;13927;51.534;11.866;2022-07-29T14:42:46;14.85;;;3.97;;
26181;SDS011;13927;51.534;11.866;2022-07-29T14:45:12;9.85;;;3.38;;
26181;SDS011;13927;51.534;11.866;2022-07-29T14:47:38;6.60;;;2.53;;
26181;SDS011;13927;51.534;11.866;2022-07-29T14:50:05;4.63;;;2.33;;
26181;SDS011;13927;51.534;11.866;2022-07-29T14:52:32;3.95;;;2.33;;
26181;SDS011;13927;51.534;11.866;2022-07-29T14:54:58;7.47;;;2.58;;
26181;SDS011;13927;51.534;11.866;2022-07-29T14:57:24;3.00;;;2.25;;
26181;SDS011;13927;51.534;11.866;2022-07-29T14:59:50;3.33;;;2.58;;
26181;SDS011;13927;51.534;11.866;2022-07-29T15:02:16;5.22;;;2.40;;
26181;SDS011;13927;51.534;11.866;2022-07-29T15:04:41;5.03;;;2.53;;
26181;SDS011;13927;51.534;11.866;2022-07-29T15:07:08;9.13;;;2.88;;
26181;SDS011;13927;51.534;11.866;2022-07-29T15:09:34;7.10;;;2.60;;
26181;SDS011;13927;51.534;11.866;2022-07-29T15:12:00;3.08;;;2.17;;
26181;SDS011;13927;51.534;11.866;2022-07-29T15:14:27;6.65;;;2.65;;
26181;SDS011;13927;51.534;11.866;2022-07-29T15:16:53;4.20;;;2.50;;
26181;SDS011;13927;51.534;11.866;2022-07-29T15:19:19;2.97;;;2.30;;
26181;SDS011;13927;51.534;11.866;2022-07-29T15:21:45;5.53;;;2.70;;
26181;SDS011;13927;51.534;11.866;2022-07-29T15:24:11;3.35;;;2.40;;
26181;SDS011;13927;51.534;11.866;2022-07-29T15:26:37;5.18;;;2.67;;
26181;SDS011;13927;51.534;11.866;2022-07-29T15:29:03;5.03;;;2.92;;
26181;SDS011;13927;51.534;11.866;2022-07-29T15:31:29;5.50;;;2.22;;
26181;SDS011;13927;51.534;11.866;2022-07-29T15:33:54;5.13;;;2.50;;
26181;SDS011;13927;51.534;11.866;2022-07-29T15:36:20;6.60;;;2.50;;
26181;SDS011;13927;51.534;11.866;2022-07-29T15:38:46;5.13;;;2.65;;
26181;SDS011;13927;51.534;11.866;2022-07-29T15:41:14;2.83;;;2.28;;
26181;SDS011;13927;51.534;11.866;2022-07-29T15:43:44;3.28;;;2.60;;
26181;SDS011;13927;51.534;11.866;2022-07-29T15:46:12;3.60;;;2.58;;
26181;SDS011;13927;51.534;11.866;2022-07-29T15:48:58;3.33;;;2.50;;